sensor_id;sensor_type;location;lat;lon;timestamp;P1;durP1;ratioP1;P2;durP2;ratioP2
64686;SDS011;51113;53.646;-113.674;2023-05-15T00:02:10;9.60;;;5.28;;
64686;SDS011;51113;53.646;-113.674;2023-05-15T00:04:39;7.13;;;4.70;;
64686;SDS011;51113;53.646;-113.674;2023-05-15T00:07:08;10.05;;;5.53;;
64686;SDS011;51113;53.646;-113.674;2023-05-15T00:09:37;9.95;;;7.30;;
64686;SDS011;51113;53.646;-113.674;2023-05-15T00:12:05;10.07;;;6.38;;
64686;SDS011;51113;53.646;-113.674;2023-05-15T00:14:34;9.02;;;4.70;;
64686;SDS011;51113;53.646;-113.674;2023-05-15T00:17:03;8.77;;;4.90;;
64686;SDS011;51113;53.646;-113.674;2023-05-15T00:19:31;9.60;;;3.97;;
64686;SDS011;51113;53.646;-113.674;2023-05-15T00:22:00;11.05;;;4.30;;
64686;SDS011;51113;53.646;-113.674;2023-05-15T00:24:29;9.25;;;3.95;;
64686;SDS011;51113;53.646;-113.674;2023-05-15T00:26:58;10.23;;;4.07;;
64686;SDS011;51113;53.646;-113.674;2023-05-15T00:29:27;8.20;;;3.80;;
64686;SDS011;51113;53.646;-113.674;2023-05-15T00:31:55;8.63;;;3.72;;
64686;SDS011;51113;53.646;-113.674;2023-05-15T00:34:24;8.73;;;4.03;;
64686;SDS011;51113;53.646;-113.674;2023-05-15T00:36:53;10.80;;;4.05;;
64686;SDS011;51113;53.646;-113.674;2023-05-15T00:39:21;8.40;;;3.42;;
64686;SDS011;51113;53.646;-113.674;2023-05-15T00:41:50;9.70;;;3.90;;
64686;SDS011;51113;53.646;-113.674;2023-05-15T00:44:20;9.80;;;3.83;;
64686;SDS011;51113;53.646;-113.674;2023-05-15T00:46:50;9.20;;;3.50;;
64686;SDS011;51113;53.646;-113.674;2023-05-15T00:49:19;11.07;;;4.03;;
64686;SDS011;51113;53.646;-113.674;2023-05-15T00:51:49;7.03;;;3.40;;
64686;SDS011;51113;53.646;-113.674;2023-05-15T00:54:19;8.82;;;3.40;;
64686;SDS011;51113;53.646;-113.674;2023-05-15T00:56:48;6.40;;;3.88;;
64686;SDS011;51113;53.646;-113.674;2023-05-15T00:59:18;8.32;;;4.07;;
64686;SDS011;51113;53.646;-113.674;2023-05-15T01:01:49;15.68;;;4.55;;
64686;SDS011;51113;53.646;-113.674;2023-05-15T01:04:17;7.22;;;3.75;;
64686;SDS011;51113;53.646;-113.674;2023-05-15T01:06:46;9.63;;;3.33;;
64686;SDS011;51113;53.646;-113.674;2023-05-15T01:09:19;8.70;;;3.53;;
64686;SDS011;51113;53.646;-113.674;2023-05-15T01:11:52;13.97;;;3.63;;
64686;SDS011;51113;53.646;-113.674;2023-05-15T01:14:21;12.88;;;3.60;;
64686;SDS011;51113;53.646;-113.674;2023-05-15T01:16:50;9.05;;;3.28;;
64686;SDS011;51113;53.646;-113.674;2023-05-15T01:19:18;9.70;;;3.78;;
64686;SDS011;51113;53.646;-113.674;2023-05-15T01:32:46;10.48;;;3.55;;
64686;SDS011;51113;53.646;-113.674;2023-05-15T01:43:34;9.38;;;3.65;;
64686;SDS011;51113;53.646;-113.674;2023-05-15T01:46:05;14.57;;;3.85;;
64686;SDS011;51113;53.646;-113.674;2023-05-15T01:48:35;12.05;;;3.60;;
64686;SDS011;51113;53.646;-113.674;2023-05-15T01:51:04;9.13;;;4.03;;
64686;SDS011;51113;53.646;-113.674;2023-05-15T01:53:34;12.07;;;3.60;;
64686;SDS011;51113;53.646;-113.674;2023-05-15T01:56:05;11.23;;;3.70;;
64686;SDS011;51113;53.646;-113.674;2023-05-15T01:58:36;13.60;;;3.65;;
64686;SDS011;51113;53.646;-113.674;2023-05-15T02:01:07;13.80;;;3.95;;
64686;SDS011;51113;53.646;-113.674;2023-05-15T02:03:37;16.60;;;4.43;;
64686;SDS011;51113;53.646;-113.674;2023-05-15T02:06:06;12.02;;;3.70;;
64686;SDS011;51113;53.646;-113.674;2023-05-15T02:08:36;9.10;;;3.83;;
64686;SDS011;51113;53.646;-113.674;2023-05-15T02:11:04;10.55;;;3.80;;
64686;SDS011;51113;53.646;-113.674;2023-05-15T02:13:34;8.73;;;3.90;;
64686;SDS011;51113;53.646;-113.674;2023-05-15T02:16:04;9.18;;;4.20;;
64686;SDS011;51113;53.646;-113.674;2023-05-15T02:18:33;6.25;;;4.03;;
64686;SDS011;51113;53.646;-113.674;2023-05-15T02:21:02;7.65;;;3.70;;
64686;SDS011;51113;53.646;-113.674;2023-05-15T02:23:31;9.90;;;4.40;;
64686;SDS011;51113;53.646;-113.674;2023-05-15T02:26:09;9.02;;;4.13;;
64686;SDS011;51113;53.646;-113.674;2023-05-15T02:29:02;8.95;;;4.05;;
64686;SDS011;51113;53.646;-113.674;2023-05-15T02:34:25;7.25;;;3.47;;
64686;SDS011;51113;53.646;-113.674;2023-05-15T02:37:01;8.38;;;3.60;;
64686;SDS011;51113;53.646;-113.674;2023-05-15T02:39:31;8.02;;;3.67;;
64686;SDS011;51113;53.646;-113.674;2023-05-15T02:42:01;7.13;;;4.00;;
64686;SDS011;51113;53.646;-113.674;2023-05-15T02:44:31;7.55;;;3.58;;
64686;SDS011;51113;53.646;-113.674;2023-05-15T02:47:02;8.50;;;3.83;;
64686;SDS011;51113;53.646;-113.674;2023-05-15T02:49:32;5.10;;;3.75;;
64686;SDS011;51113;53.646;-113.674;2023-05-15T02:52:02;8.10;;;4.03;;
64686;SDS011;51113;53.646;-113.674;2023-05-15T02:54:31;10.38;;;4.00;;
64686;SDS011;51113;53.646;-113.674;2023-05-15T02:56:59;8.35;;;4.20;;
64686;SDS011;51113;53.646;-113.674;2023-05-15T02:59:28;10.98;;;4.28;;
64686;SDS011;51113;53.646;-113.674;2023-05-15T03:01:57;11.48;;;4.05;;
64686;SDS011;51113;53.646;-113.674;2023-05-15T03:04:25;8.38;;;4.32;;
64686;SDS011;51113;53.646;-113.674;2023-05-15T03:06:55;7.85;;;3.80;;
64686;SDS011;51113;53.646;-113.674;2023-05-15T03:09:23;7.53;;;4.15;;
64686;SDS011;51113;53.646;-113.674;2023-05-15T03:11:52;8.77;;;3.78;;
64686;SDS011;51113;53.646;-113.674;2023-05-15T03:14:21;12.25;;;4.20;;
64686;SDS011;51113;53.646;-113.674;2023-05-15T03:16:49;9.30;;;4.00;;
64686;SDS011;51113;53.646;-113.674;2023-05-15T03:19:18;13.57;;;4.18;;
64686;SDS011;51113;53.646;-113.674;2023-05-15T03:21:46;11.63;;;4.25;;
64686;SDS011;51113;53.646;-113.674;2023-05-15T03:24:15;9.27;;;3.95;;
64686;SDS011;51113;53.646;-113.674;2023-05-15T03:26:44;9.95;;;3.60;;
64686;SDS011;51113;53.646;-113.674;2023-05-15T03:29:12;11.73;;;4.10;;
64686;SDS011;51113;53.646;-113.674;2023-05-15T03:31:42;15.85;;;3.95;;
64686;SDS011;51113;53.646;-113.674;2023-05-15T03:34:11;10.45;;;3.92;;
64686;SDS011;51113;53.646;-113.674;2023-05-15T03:36:39;12.52;;;4.20;;
64686;SDS011;51113;53.646;-113.674;2023-05-15T03:39:08;8.85;;;3.78;;
64686;SDS011;51113;53.646;-113.674;2023-05-15T03:41:36;8.77;;;3.83;;
64686;SDS011;51113;53.646;-113.674;2023-05-15T03:44:04;7.82;;;3.55;;
64686;SDS011;51113;53.646;-113.674;2023-05-15T03:46:33;10.85;;;4.03;;
64686;SDS011;51113;53.646;-113.674;2023-05-15T03:49:02;8.15;;;3.80;;
64686;SDS011;51113;53.646;-113.674;2023-05-15T03:51:30;8.63;;;3.78;;
64686;SDS011;51113;53.646;-113.674;2023-05-15T03:53:59;11.68;;;3.85;;
64686;SDS011;51113;53.646;-113.674;2023-05-15T03:56:28;11.80;;;3.88;;
64686;SDS011;51113;53.646;-113.674;2023-05-15T03:58:57;10.35;;;3.67;;
64686;SDS011;51113;53.646;-113.674;2023-05-15T04:01:26;6.03;;;3.42;;
64686;SDS011;51113;53.646;-113.674;2023-05-15T04:03:54;10.30;;;3.90;;
64686;SDS011;51113;53.646;-113.674;2023-05-15T04:06:23;5.88;;;3.63;;
64686;SDS011;51113;53.646;-113.674;2023-05-15T04:08:51;6.50;;;3.38;;
64686;SDS011;51113;53.646;-113.674;2023-05-15T04:11:20;8.25;;;3.75;;
64686;SDS011;51113;53.646;-113.674;2023-05-15T04:13:49;6.75;;;3.63;;
64686;SDS011;51113;53.646;-113.674;2023-05-15T04:16:18;15.25;;;3.50;;
64686;SDS011;51113;53.646;-113.674;2023-05-15T04:18:47;9.45;;;4.10;;
64686;SDS011;51113;53.646;-113.674;2023-05-15T04:21:15;11.50;;;4.20;;
64686;SDS011;51113;53.646;-113.674;2023-05-15T04:23:44;11.13;;;4.53;;
64686;SDS011;51113;53.646;-113.674;2023-05-15T04:26:12;10.75;;;3.75;;
64686;SDS011;51113;53.646;-113.674;2023-05-15T04:28:41;8.93;;;3.80;;
64686;SDS011;51113;53.646;-113.674;2023-05-15T04:31:28;13.27;;;3.92;;
64686;SDS011;51113;53.646;-113.674;2023-05-15T04:33:58;5.65;;;3.38;;
64686;SDS011;51113;53.646;-113.674;2023-05-15T04:36:27;13.50;;;3.88;;
64686;SDS011;51113;53.646;-113.674;2023-05-15T04:38:55;10.25;;;4.00;;
64686;SDS011;51113;53.646;-113.674;2023-05-15T04:41:25;8.90;;;3.80;;
64686;SDS011;51113;53.646;-113.674;2023-05-15T04:43:54;9.68;;;3.80;;
64686;SDS011;51113;53.646;-113.674;2023-05-15T04:46:23;11.00;;;4.10;;
64686;SDS011;51113;53.646;-113.674;2023-05-15T04:48:52;9.43;;;3.83;;
64686;SDS011;51113;53.646;-113.674;2023-05-15T04:51:20;16.70;;;3.95;;
64686;SDS011;51113;53.646;-113.674;2023-05-15T04:53:48;11.05;;;3.80;;
64686;SDS011;51113;53.646;-113.674;2023-05-15T04:56:17;10.90;;;3.90;;
64686;SDS011;51113;53.646;-113.674;2023-05-15T04:58:46;9.38;;;3.67;;
64686;SDS011;51113;53.646;-113.674;2023-05-15T05:01:15;12.27;;;3.80;;
64686;SDS011;51113;53.646;-113.674;2023-05-15T05:03:43;12.63;;;3.75;;
64686;SDS011;51113;53.646;-113.674;2023-05-15T05:06:12;11.52;;;3.95;;
64686;SDS011;51113;53.646;-113.674;2023-05-15T05:08:40;11.68;;;3.90;;
64686;SDS011;51113;53.646;-113.674;2023-05-15T05:11:09;15.65;;;4.40;;
64686;SDS011;51113;53.646;-113.674;2023-05-15T05:13:37;11.30;;;3.53;;
64686;SDS011;51113;53.646;-113.674;2023-05-15T05:16:06;9.98;;;4.28;;
64686;SDS011;51113;53.646;-113.674;2023-05-15T05:18:36;11.93;;;3.72;;
64686;SDS011;51113;53.646;-113.674;2023-05-15T05:21:04;10.27;;;3.47;;
64686;SDS011;51113;53.646;-113.674;2023-05-15T05:23:33;10.77;;;4.05;;
64686;SDS011;51113;53.646;-113.674;2023-05-15T05:26:02;10.32;;;4.03;;
64686;SDS011;51113;53.646;-113.674;2023-05-15T05:28:31;9.77;;;3.78;;
64686;SDS011;51113;53.646;-113.674;2023-05-15T05:31:00;9.60;;;3.78;;
64686;SDS011;51113;53.646;-113.674;2023-05-15T05:33:29;11.38;;;3.53;;
64686;SDS011;51113;53.646;-113.674;2023-05-15T05:35:58;8.43;;;3.80;;
64686;SDS011;51113;53.646;-113.674;2023-05-15T05:38:26;9.10;;;3.72;;
64686;SDS011;51113;53.646;-113.674;2023-05-15T05:40:55;10.43;;;4.15;;
64686;SDS011;51113;53.646;-113.674;2023-05-15T05:43:26;9.05;;;3.85;;
64686;SDS011;51113;53.646;-113.674;2023-05-15T05:45:56;11.35;;;3.83;;
64686;SDS011;51113;53.646;-113.674;2023-05-15T05:48:25;10.63;;;3.78;;
64686;SDS011;51113;53.646;-113.674;2023-05-15T05:50:53;10.57;;;3.92;;
64686;SDS011;51113;53.646;-113.674;2023-05-15T05:53:21;9.43;;;3.72;;
64686;SDS011;51113;53.646;-113.674;2023-05-15T05:55:50;12.23;;;3.90;;
64686;SDS011;51113;53.646;-113.674;2023-05-15T05:58:19;11.23;;;3.42;;
64686;SDS011;51113;53.646;-113.674;2023-05-15T06:00:52;10.70;;;3.72;;
64686;SDS011;51113;53.646;-113.674;2023-05-15T06:03:25;12.35;;;3.85;;
64686;SDS011;51113;53.646;-113.674;2023-05-15T06:05:54;9.63;;;3.90;;
64686;SDS011;51113;53.646;-113.674;2023-05-15T06:08:23;14.10;;;4.13;;
64686;SDS011;51113;53.646;-113.674;2023-05-15T06:10:55;13.18;;;3.97;;
64686;SDS011;51113;53.646;-113.674;2023-05-15T06:13:23;17.60;;;4.40;;
64686;SDS011;51113;53.646;-113.674;2023-05-15T06:15:52;9.02;;;3.50;;
64686;SDS011;51113;53.646;-113.674;2023-05-15T06:18:21;9.40;;;3.70;;
64686;SDS011;51113;53.646;-113.674;2023-05-15T06:20:49;17.02;;;3.83;;
64686;SDS011;51113;53.646;-113.674;2023-05-15T06:23:18;12.15;;;3.35;;
64686;SDS011;51113;53.646;-113.674;2023-05-15T06:25:49;7.82;;;4.10;;
64686;SDS011;51113;53.646;-113.674;2023-05-15T06:28:18;10.73;;;3.80;;
64686;SDS011;51113;53.646;-113.674;2023-05-15T06:30:47;9.70;;;3.78;;
64686;SDS011;51113;53.646;-113.674;2023-05-15T06:33:15;9.48;;;3.60;;
64686;SDS011;51113;53.646;-113.674;2023-05-15T06:35:44;10.65;;;3.80;;
64686;SDS011;51113;53.646;-113.674;2023-05-15T06:38:13;13.93;;;3.60;;
64686;SDS011;51113;53.646;-113.674;2023-05-15T06:40:41;8.90;;;3.83;;
64686;SDS011;51113;53.646;-113.674;2023-05-15T06:43:09;11.65;;;4.13;;
64686;SDS011;51113;53.646;-113.674;2023-05-15T06:45:38;11.43;;;3.75;;
64686;SDS011;51113;53.646;-113.674;2023-05-15T06:48:07;14.68;;;4.45;;
64686;SDS011;51113;53.646;-113.674;2023-05-15T06:50:37;10.00;;;3.97;;
64686;SDS011;51113;53.646;-113.674;2023-05-15T06:53:05;12.85;;;3.80;;
64686;SDS011;51113;53.646;-113.674;2023-05-15T06:55:34;11.35;;;3.35;;
64686;SDS011;51113;53.646;-113.674;2023-05-15T06:58:04;13.73;;;3.85;;
64686;SDS011;51113;53.646;-113.674;2023-05-15T07:00:33;7.93;;;3.65;;
64686;SDS011;51113;53.646;-113.674;2023-05-15T07:03:01;15.55;;;3.80;;
64686;SDS011;51113;53.646;-113.674;2023-05-15T07:05:30;12.63;;;4.10;;
64686;SDS011;51113;53.646;-113.674;2023-05-15T07:07:59;8.15;;;3.70;;
64686;SDS011;51113;53.646;-113.674;2023-05-15T07:10:27;11.35;;;3.88;;
64686;SDS011;51113;53.646;-113.674;2023-05-15T07:12:56;9.55;;;3.45;;
64686;SDS011;51113;53.646;-113.674;2023-05-15T07:15:24;13.15;;;3.78;;
64686;SDS011;51113;53.646;-113.674;2023-05-15T07:17:53;9.70;;;3.50;;
64686;SDS011;51113;53.646;-113.674;2023-05-15T07:20:22;10.07;;;4.05;;
64686;SDS011;51113;53.646;-113.674;2023-05-15T07:25:23;11.63;;;3.80;;
64686;SDS011;51113;53.646;-113.674;2023-05-15T07:27:52;12.20;;;4.18;;
64686;SDS011;51113;53.646;-113.674;2023-05-15T07:30:21;13.73;;;3.92;;
64686;SDS011;51113;53.646;-113.674;2023-05-15T07:32:50;6.47;;;3.80;;
64686;SDS011;51113;53.646;-113.674;2023-05-15T07:35:19;14.68;;;3.95;;
64686;SDS011;51113;53.646;-113.674;2023-05-15T07:37:48;17.02;;;4.45;;
64686;SDS011;51113;53.646;-113.674;2023-05-15T07:40:16;15.45;;;4.07;;
64686;SDS011;51113;53.646;-113.674;2023-05-15T07:42:45;10.63;;;3.80;;
64686;SDS011;51113;53.646;-113.674;2023-05-15T07:45:13;11.30;;;3.95;;
64686;SDS011;51113;53.646;-113.674;2023-05-15T07:47:44;10.15;;;3.88;;
64686;SDS011;51113;53.646;-113.674;2023-05-15T07:50:13;14.48;;;4.00;;
64686;SDS011;51113;53.646;-113.674;2023-05-15T07:52:43;13.00;;;4.25;;
64686;SDS011;51113;53.646;-113.674;2023-05-15T07:55:11;16.10;;;4.28;;
64686;SDS011;51113;53.646;-113.674;2023-05-15T07:57:40;12.45;;;4.13;;
64686;SDS011;51113;53.646;-113.674;2023-05-15T08:00:09;11.15;;;3.75;;
64686;SDS011;51113;53.646;-113.674;2023-05-15T08:02:38;12.32;;;3.78;;
64686;SDS011;51113;53.646;-113.674;2023-05-15T08:05:07;9.93;;;3.78;;
64686;SDS011;51113;53.646;-113.674;2023-05-15T08:07:36;9.60;;;3.47;;
64686;SDS011;51113;53.646;-113.674;2023-05-15T08:10:05;10.27;;;3.65;;
64686;SDS011;51113;53.646;-113.674;2023-05-15T08:12:35;8.88;;;3.70;;
64686;SDS011;51113;53.646;-113.674;2023-05-15T08:15:04;8.18;;;4.25;;
64686;SDS011;51113;53.646;-113.674;2023-05-15T08:17:33;6.13;;;3.55;;
64686;SDS011;51113;53.646;-113.674;2023-05-15T08:20:02;10.45;;;3.72;;
64686;SDS011;51113;53.646;-113.674;2023-05-15T08:22:31;8.18;;;4.10;;
64686;SDS011;51113;53.646;-113.674;2023-05-15T08:25:00;10.32;;;3.60;;
64686;SDS011;51113;53.646;-113.674;2023-05-15T08:27:30;12.10;;;4.18;;
64686;SDS011;51113;53.646;-113.674;2023-05-15T08:29:58;8.70;;;3.47;;
64686;SDS011;51113;53.646;-113.674;2023-05-15T08:32:28;6.25;;;3.53;;
64686;SDS011;51113;53.646;-113.674;2023-05-15T08:34:56;10.55;;;3.65;;
64686;SDS011;51113;53.646;-113.674;2023-05-15T08:37:25;10.15;;;3.88;;
64686;SDS011;51113;53.646;-113.674;2023-05-15T08:39:56;12.07;;;3.72;;
64686;SDS011;51113;53.646;-113.674;2023-05-15T08:42:43;7.20;;;3.75;;
64686;SDS011;51113;53.646;-113.674;2023-05-15T08:45:15;14.32;;;3.80;;
64686;SDS011;51113;53.646;-113.674;2023-05-15T08:47:44;6.13;;;3.30;;
64686;SDS011;51113;53.646;-113.674;2023-05-15T08:50:14;8.70;;;3.63;;
64686;SDS011;51113;53.646;-113.674;2023-05-15T08:52:44;8.68;;;3.40;;
64686;SDS011;51113;53.646;-113.674;2023-05-15T08:55:15;8.40;;;3.40;;
64686;SDS011;51113;53.646;-113.674;2023-05-15T08:57:44;9.43;;;3.45;;
64686;SDS011;51113;53.646;-113.674;2023-05-15T09:00:14;8.65;;;3.60;;
64686;SDS011;51113;53.646;-113.674;2023-05-15T09:02:44;12.00;;;3.88;;
64686;SDS011;51113;53.646;-113.674;2023-05-15T09:05:13;9.18;;;3.38;;
64686;SDS011;51113;53.646;-113.674;2023-05-15T09:07:42;5.72;;;3.40;;
64686;SDS011;51113;53.646;-113.674;2023-05-15T09:10:13;5.75;;;3.15;;
64686;SDS011;51113;53.646;-113.674;2023-05-15T09:12:42;6.28;;;3.40;;
64686;SDS011;51113;53.646;-113.674;2023-05-15T09:17:44;18.30;;;3.50;;
64686;SDS011;51113;53.646;-113.674;2023-05-15T09:23:02;7.30;;;3.20;;
64686;SDS011;51113;53.646;-113.674;2023-05-15T09:28:01;7.30;;;3.45;;
64686;SDS011;51113;53.646;-113.674;2023-05-15T09:30:30;7.35;;;3.20;;
64686;SDS011;51113;53.646;-113.674;2023-05-15T09:33:02;6.40;;;3.42;;
64686;SDS011;51113;53.646;-113.674;2023-05-15T09:35:35;7.90;;;3.30;;
64686;SDS011;51113;53.646;-113.674;2023-05-15T09:38:09;6.63;;;3.28;;
64686;SDS011;51113;53.646;-113.674;2023-05-15T09:40:39;7.45;;;3.10;;
64686;SDS011;51113;53.646;-113.674;2023-05-15T09:43:11;6.97;;;3.30;;
64686;SDS011;51113;53.646;-113.674;2023-05-15T09:45:39;5.68;;;3.17;;
64686;SDS011;51113;53.646;-113.674;2023-05-15T09:48:08;9.27;;;3.20;;
64686;SDS011;51113;53.646;-113.674;2023-05-15T09:50:39;12.25;;;3.10;;
64686;SDS011;51113;53.646;-113.674;2023-05-15T09:53:12;7.15;;;2.75;;
64686;SDS011;51113;53.646;-113.674;2023-05-15T09:55:46;8.25;;;3.03;;
64686;SDS011;51113;53.646;-113.674;2023-05-15T09:58:16;7.75;;;3.30;;
64686;SDS011;51113;53.646;-113.674;2023-05-15T10:00:46;9.25;;;3.17;;
64686;SDS011;51113;53.646;-113.674;2023-05-15T10:03:18;5.10;;;2.75;;
64686;SDS011;51113;53.646;-113.674;2023-05-15T10:05:48;4.00;;;2.80;;
64686;SDS011;51113;53.646;-113.674;2023-05-15T10:08:24;5.32;;;2.80;;
64686;SDS011;51113;53.646;-113.674;2023-05-15T10:10:54;7.75;;;2.67;;
64686;SDS011;51113;53.646;-113.674;2023-05-15T10:13:28;4.30;;;2.92;;
64686;SDS011;51113;53.646;-113.674;2023-05-15T10:16:00;10.93;;;3.13;;
64686;SDS011;51113;53.646;-113.674;2023-05-15T10:18:30;7.68;;;2.58;;
64686;SDS011;51113;53.646;-113.674;2023-05-15T10:21:00;9.77;;;2.60;;
64686;SDS011;51113;53.646;-113.674;2023-05-15T10:23:31;4.75;;;2.40;;
64686;SDS011;51113;53.646;-113.674;2023-05-15T10:26:10;5.82;;;2.88;;
64686;SDS011;51113;53.646;-113.674;2023-05-15T10:28:42;12.32;;;3.03;;
64686;SDS011;51113;53.646;-113.674;2023-05-15T10:31:12;5.38;;;2.65;;
64686;SDS011;51113;53.646;-113.674;2023-05-15T10:33:41;6.35;;;2.70;;
64686;SDS011;51113;53.646;-113.674;2023-05-15T10:36:12;5.03;;;2.40;;
64686;SDS011;51113;53.646;-113.674;2023-05-15T10:38:41;6.40;;;2.83;;
64686;SDS011;51113;53.646;-113.674;2023-05-15T10:41:11;3.92;;;2.47;;
64686;SDS011;51113;53.646;-113.674;2023-05-15T10:43:43;3.63;;;2.10;;
64686;SDS011;51113;53.646;-113.674;2023-05-15T10:46:14;5.65;;;2.58;;
64686;SDS011;51113;53.646;-113.674;2023-05-15T10:48:43;5.45;;;2.45;;
64686;SDS011;51113;53.646;-113.674;2023-05-15T10:51:46;10.00;;;2.80;;
64686;SDS011;51113;53.646;-113.674;2023-05-15T10:54:09;7.22;;;2.45;;
64686;SDS011;51113;53.646;-113.674;2023-05-15T10:56:37;7.80;;;2.47;;
64686;SDS011;51113;53.646;-113.674;2023-05-15T10:59:07;11.43;;;2.72;;
64686;SDS011;51113;53.646;-113.674;2023-05-15T11:01:38;6.03;;;2.42;;
64686;SDS011;51113;53.646;-113.674;2023-05-15T11:06:38;9.55;;;2.40;;
64686;SDS011;51113;53.646;-113.674;2023-05-15T11:14:24;8.93;;;2.50;;
64686;SDS011;51113;53.646;-113.674;2023-05-15T11:33:00;6.35;;;2.25;;
64686;SDS011;51113;53.646;-113.674;2023-05-15T11:35:31;8.45;;;2.60;;
64686;SDS011;51113;53.646;-113.674;2023-05-15T11:38:15;7.93;;;2.40;;
64686;SDS011;51113;53.646;-113.674;2023-05-15T11:40:53;6.90;;;2.17;;
64686;SDS011;51113;53.646;-113.674;2023-05-15T11:43:35;5.68;;;2.78;;
64686;SDS011;51113;53.646;-113.674;2023-05-15T11:46:07;8.15;;;2.30;;
64686;SDS011;51113;53.646;-113.674;2023-05-15T11:48:40;9.25;;;2.55;;
64686;SDS011;51113;53.646;-113.674;2023-05-15T11:51:20;7.13;;;2.60;;
64686;SDS011;51113;53.646;-113.674;2023-05-15T11:53:53;8.25;;;2.40;;
64686;SDS011;51113;53.646;-113.674;2023-05-15T11:56:23;5.07;;;2.43;;
64686;SDS011;51113;53.646;-113.674;2023-05-15T11:58:56;9.73;;;2.60;;
64686;SDS011;51113;53.646;-113.674;2023-05-15T12:01:27;6.05;;;2.40;;
64686;SDS011;51113;53.646;-113.674;2023-05-15T12:04:10;5.78;;;2.13;;
64686;SDS011;51113;53.646;-113.674;2023-05-15T12:06:44;7.85;;;2.35;;
64686;SDS011;51113;53.646;-113.674;2023-05-15T12:11:52;6.05;;;2.35;;
64686;SDS011;51113;53.646;-113.674;2023-05-15T12:14:28;8.98;;;2.25;;
64686;SDS011;51113;53.646;-113.674;2023-05-15T12:17:00;7.38;;;2.10;;
64686;SDS011;51113;53.646;-113.674;2023-05-15T12:19:32;7.93;;;2.28;;
64686;SDS011;51113;53.646;-113.674;2023-05-15T12:22:05;8.93;;;2.47;;
64686;SDS011;51113;53.646;-113.674;2023-05-15T12:24:36;8.68;;;2.33;;
64686;SDS011;51113;53.646;-113.674;2023-05-15T12:27:06;7.72;;;2.40;;
64686;SDS011;51113;53.646;-113.674;2023-05-15T12:29:36;5.78;;;2.22;;
64686;SDS011;51113;53.646;-113.674;2023-05-15T12:32:06;9.63;;;2.60;;
64686;SDS011;51113;53.646;-113.674;2023-05-15T12:34:35;8.88;;;2.10;;
64686;SDS011;51113;53.646;-113.674;2023-05-15T12:37:04;4.28;;;2.22;;
64686;SDS011;51113;53.646;-113.674;2023-05-15T12:39:33;9.68;;;2.20;;
64686;SDS011;51113;53.646;-113.674;2023-05-15T12:42:02;9.57;;;2.50;;
64686;SDS011;51113;53.646;-113.674;2023-05-15T12:44:31;5.05;;;2.13;;
64686;SDS011;51113;53.646;-113.674;2023-05-15T12:46:59;7.60;;;2.10;;
64686;SDS011;51113;53.646;-113.674;2023-05-15T12:49:28;11.38;;;2.40;;
64686;SDS011;51113;53.646;-113.674;2023-05-15T12:51:57;9.15;;;2.55;;
64686;SDS011;51113;53.646;-113.674;2023-05-15T12:54:37;6.82;;;2.20;;
64686;SDS011;51113;53.646;-113.674;2023-05-15T12:57:08;12.27;;;2.55;;
64686;SDS011;51113;53.646;-113.674;2023-05-15T12:59:37;10.40;;;2.42;;
64686;SDS011;51113;53.646;-113.674;2023-05-15T13:02:08;8.70;;;2.30;;
64686;SDS011;51113;53.646;-113.674;2023-05-15T13:04:40;7.20;;;2.03;;
64686;SDS011;51113;53.646;-113.674;2023-05-15T13:07:09;7.30;;;2.10;;
64686;SDS011;51113;53.646;-113.674;2023-05-15T13:09:43;7.45;;;2.00;;
64686;SDS011;51113;53.646;-113.674;2023-05-15T13:12:13;9.75;;;2.67;;
64686;SDS011;51113;53.646;-113.674;2023-05-15T13:14:46;18.23;;;2.50;;
64686;SDS011;51113;53.646;-113.674;2023-05-15T13:17:15;4.65;;;2.15;;
64686;SDS011;51113;53.646;-113.674;2023-05-15T13:19:43;6.18;;;2.20;;
64686;SDS011;51113;53.646;-113.674;2023-05-15T13:22:11;7.63;;;2.20;;
64686;SDS011;51113;53.646;-113.674;2023-05-15T13:24:41;6.50;;;2.15;;
64686;SDS011;51113;53.646;-113.674;2023-05-15T13:27:12;8.57;;;1.95;;
64686;SDS011;51113;53.646;-113.674;2023-05-15T13:29:40;8.48;;;2.10;;
64686;SDS011;51113;53.646;-113.674;2023-05-15T13:32:09;6.82;;;2.03;;
64686;SDS011;51113;53.646;-113.674;2023-05-15T13:34:37;8.23;;;2.40;;
64686;SDS011;51113;53.646;-113.674;2023-05-15T13:37:06;9.10;;;2.28;;
64686;SDS011;51113;53.646;-113.674;2023-05-15T13:39:35;13.57;;;2.15;;
64686;SDS011;51113;53.646;-113.674;2023-05-15T13:42:03;7.68;;;2.00;;
64686;SDS011;51113;53.646;-113.674;2023-05-15T13:44:31;6.88;;;2.53;;
64686;SDS011;51113;53.646;-113.674;2023-05-15T13:47:02;4.30;;;2.00;;
64686;SDS011;51113;53.646;-113.674;2023-05-15T13:49:31;9.65;;;2.08;;
64686;SDS011;51113;53.646;-113.674;2023-05-15T13:51:59;7.05;;;2.10;;
64686;SDS011;51113;53.646;-113.674;2023-05-15T13:54:28;6.28;;;1.90;;
64686;SDS011;51113;53.646;-113.674;2023-05-15T13:56:59;5.22;;;2.20;;
64686;SDS011;51113;53.646;-113.674;2023-05-15T13:59:28;7.38;;;2.10;;
64686;SDS011;51113;53.646;-113.674;2023-05-15T14:01:57;5.90;;;2.08;;
64686;SDS011;51113;53.646;-113.674;2023-05-15T14:04:25;7.68;;;2.55;;
64686;SDS011;51113;53.646;-113.674;2023-05-15T14:06:54;7.03;;;1.88;;
64686;SDS011;51113;53.646;-113.674;2023-05-15T14:09:22;4.28;;;2.30;;
64686;SDS011;51113;53.646;-113.674;2023-05-15T14:11:50;9.07;;;2.40;;
64686;SDS011;51113;53.646;-113.674;2023-05-15T14:14:19;10.48;;;2.10;;
64686;SDS011;51113;53.646;-113.674;2023-05-15T14:16:48;9.52;;;2.05;;
64686;SDS011;51113;53.646;-113.674;2023-05-15T14:19:16;4.97;;;2.13;;
64686;SDS011;51113;53.646;-113.674;2023-05-15T14:21:45;5.53;;;2.08;;
64686;SDS011;51113;53.646;-113.674;2023-05-15T14:24:14;5.88;;;2.03;;
64686;SDS011;51113;53.646;-113.674;2023-05-15T14:26:42;7.22;;;2.10;;
64686;SDS011;51113;53.646;-113.674;2023-05-15T14:29:11;6.88;;;2.30;;
64686;SDS011;51113;53.646;-113.674;2023-05-15T14:31:41;4.53;;;1.90;;
64686;SDS011;51113;53.646;-113.674;2023-05-15T14:34:13;9.27;;;2.20;;
64686;SDS011;51113;53.646;-113.674;2023-05-15T14:36:42;5.43;;;1.98;;
64686;SDS011;51113;53.646;-113.674;2023-05-15T14:39:13;8.63;;;2.00;;
64686;SDS011;51113;53.646;-113.674;2023-05-15T14:41:42;7.38;;;2.17;;
64686;SDS011;51113;53.646;-113.674;2023-05-15T14:44:11;5.13;;;2.20;;
64686;SDS011;51113;53.646;-113.674;2023-05-15T14:46:41;6.38;;;1.98;;
64686;SDS011;51113;53.646;-113.674;2023-05-15T14:49:10;12.90;;;2.40;;
64686;SDS011;51113;53.646;-113.674;2023-05-15T14:51:38;8.10;;;2.20;;
64686;SDS011;51113;53.646;-113.674;2023-05-15T14:54:07;8.57;;;2.55;;
64686;SDS011;51113;53.646;-113.674;2023-05-15T14:56:36;12.95;;;2.60;;
64686;SDS011;51113;53.646;-113.674;2023-05-15T14:59:04;12.52;;;2.65;;
64686;SDS011;51113;53.646;-113.674;2023-05-15T15:01:33;7.75;;;2.78;;
64686;SDS011;51113;53.646;-113.674;2023-05-15T15:04:02;4.97;;;2.20;;
64686;SDS011;51113;53.646;-113.674;2023-05-15T15:06:31;6.30;;;2.20;;
64686;SDS011;51113;53.646;-113.674;2023-05-15T15:08:59;7.05;;;2.50;;
64686;SDS011;51113;53.646;-113.674;2023-05-15T15:11:28;11.10;;;2.42;;
64686;SDS011;51113;53.646;-113.674;2023-05-15T15:13:57;5.95;;;2.45;;
64686;SDS011;51113;53.646;-113.674;2023-05-15T15:16:26;11.85;;;2.58;;
64686;SDS011;51113;53.646;-113.674;2023-05-15T15:18:55;9.93;;;2.70;;